Time;durP1;ratioP1;P1;durP2;ratioP2;P2;SDS_P1;SDS_P2;PMS_P1;PMS_P2;Temp;Humidity;BMP_temperature;BMP_pressure;BME280_temperature;BME280_humidity;BME280_pressure;Samples;Min_cycle;Max_cycle;Signal;HPM_P1;HPM_P2
2024/04/22 00:01:02;;;;;;;7.30;3.80;;;;;;;;;;5464968;26;20016;-80
2024/04/22 00:03:47;;;;;;;8.35;4.85;;;;;;;;;;5490163;26;20037;-81
2024/04/22 00:06:32;;;;;;;7.40;3.65;;;;;;;;;;5490341;26;20020;-81
2024/04/22 00:09:18;;;;;;;5.38;3.70;;;;;;;;;;5496792;26;20005;-81
2024/04/22 00:12:03;;;;;;;6.82;4.18;;;;;;;;;;5494095;26;20010;-80
2024/04/22 00:14:48;;;;;;;6.28;3.53;;;;;;;;;;5489526;26;20016;-80
2024/04/22 00:17:33;;;;;;;6.72;3.65;;;;;;;;;;5464666;26;20009;-81
2024/04/22 00:20:19;;;;;;;6.13;4.05;;;;;;;;;;5514958;26;20009;-81
2024/04/22 00:23:06;;;;;;;6.93;3.92;;;;;;;;;;5429567;26;19998;-80
2024/04/22 00:25:51;;;;;;;6.47;3.55;;;;;;;;;;5470934;25;19996;-81
2024/04/22 00:28:37;;;;;;;6.93;4.10;;;;;;;;;;5521868;25;20519;-81
2024/04/22 00:31:22;;;;;;;5.72;3.55;;;;;;;;;;5478769;26;20012;-81
2024/04/22 00:34:08;;;;;;;6.47;3.88;;;;;;;;;;5453270;26;20018;-81
2024/04/22 00:36:53;;;;;;;6.25;3.97;;;;;;;;;;5488558;25;20060;-80
2024/04/22 00:39:38;;;;;;;9.82;4.15;;;;;;;;;;5524848;25;20016;-80
2024/04/22 00:42:23;;;;;;;4.80;3.28;;;;;;;;;;5511127;25;20639;-80
2024/04/22 00:45:09;;;;;;;5.82;3.78;;;;;;;;;;5453041;26;20026;-80
2024/04/22 00:47:55;;;;;;;7.55;4.15;;;;;;;;;;5479257;26;20078;-80
2024/04/22 00:50:41;;;;;;;7.40;4.13;;;;;;;;;;5499857;25;20479;-80
2024/04/22 00:53:26;;;;;;;6.55;4.65;;;;;;;;;;5554771;25;20020;-80
2024/04/22 00:56:12;;;;;;;5.75;3.78;;;;;;;;;;5518507;25;20443;-80
2024/04/22 00:59:00;;;;;;;6.50;4.03;;;;;;;;;;5489430;26;19993;-80
2024/04/22 01:01:45;;;;;;;6.90;3.60;;;;;;;;;;5511976;25;20436;-81
2024/04/22 01:04:33;;;;;;;9.13;3.90;;;;;;;;;;5487864;25;20012;-80
2024/04/22 01:07:18;;;;;;;10.65;3.75;;;;;;;;;;5506701;25;19997;-81
2024/04/22 01:10:04;;;;;;;6.28;3.70;;;;;;;;;;5525521;25;20005;-82
2024/04/22 01:12:49;;;;;;;7.05;3.80;;;;;;;;;;5493555;26;20143;-82
2024/04/22 01:15:34;;;;;;;6.45;4.03;;;;;;;;;;5489847;26;20008;-82
2024/04/22 01:18:19;;;;;;;6.57;4.10;;;;;;;;;;5490054;26;20012;-81
2024/04/22 01:21:05;;;;;;;6.32;4.13;;;;;;;;;;5488970;25;20019;-80
2024/04/22 01:23:51;;;;;;;5.75;3.55;;;;;;;;;;5494873;26;19994;-80
2024/04/22 01:26:37;;;;;;;5.85;3.28;;;;;;;;;;5488841;25;20001;-79
2024/04/22 01:29:22;;;;;;;5.95;3.63;;;;;;;;;;5489178;26;20013;-80
2024/04/22 01:32:07;;;;;;;6.45;3.97;;;;;;;;;;5477874;26;20050;-81
2024/04/22 01:34:59;;;;;;;6.72;3.45;;;;;;;;;;5453047;26;20013;-80
2024/04/22 01:37:45;;;;;;;8.18;4.18;;;;;;;;;;5452094;26;20002;-81
2024/04/22 01:40:30;;;;;;;6.53;3.72;;;;;;;;;;5452824;26;20002;-81
2024/04/22 01:43:15;;;;;;;6.93;4.10;;;;;;;;;;5519669;25;20151;-81
2024/04/22 01:46:02;;;;;;;8.77;3.60;;;;;;;;;;5478551;26;20010;-80
2024/04/22 01:48:48;;;;;;;7.65;3.45;;;;;;;;;;5478892;26;20016;-81
2024/04/22 01:51:33;;;;;;;6.00;3.45;;;;;;;;;;5517784;25;20068;-81
2024/04/22 01:54:18;;;;;;;4.47;3.20;;;;;;;;;;5515607;26;20023;-82
2024/04/22 01:57:03;;;;;;;9.55;3.22;;;;;;;;;;5491710;25;20355;-81
2024/04/22 01:59:48;;;;;;;7.15;3.58;;;;;;;;;;5552249;25;19996;-81
2024/04/22 02:02:37;;;;;;;6.13;3.45;;;;;;;;;;5515866;25;20029;-81
2024/04/22 02:05:22;;;;;;;5.53;3.50;;;;;;;;;;5491968;26;20485;-81
2024/04/22 02:08:08;;;;;;;6.18;3.70;;;;;;;;;;5484492;26;19990;-82
2024/04/22 02:10:53;;;;;;;4.72;3.50;;;;;;;;;;5463336;25;20024;-81
2024/04/22 02:13:38;;;;;;;5.32;3.67;;;;;;;;;;5493412;26;19997;-82
2024/04/22 02:16:23;;;;;;;7.05;3.80;;;;;;;;;;5523133;25;20005;-81
2024/04/22 02:19:08;;;;;;;7.28;3.75;;;;;;;;;;5529198;25;19993;-81
2024/04/22 02:21:54;;;;;;;6.72;3.40;;;;;;;;;;5519898;25;20016;-81
2024/04/22 02:24:39;;;;;;;5.90;3.53;;;;;;;;;;5492304;25;20005;-81
2024/04/22 02:27:25;;;;;;;7.90;4.38;;;;;;;;;;5480733;26;19998;-81
2024/04/22 02:30:10;;;;;;;8.40;3.58;;;;;;;;;;5491571;26;20008;-82
2024/04/22 02:32:55;;;;;;;5.95;4.45;;;;;;;;;;5509379;25;20040;-81
2024/04/22 02:35:41;;;;;;;6.65;3.80;;;;;;;;;;5520776;25;20009;-81
2024/04/22 02:38:26;;;;;;;6.45;3.83;;;;;;;;;;5495234;26;20017;-81
2024/04/22 02:41:11;;;;;;;7.78;3.33;;;;;;;;;;5496351;25;19997;-81
2024/04/22 02:43:56;;;;;;;5.60;3.55;;;;;;;;;;5488390;26;20014;-81
2024/04/22 02:46:42;;;;;;;6.20;3.50;;;;;;;;;;5485061;26;20012;-81
2024/04/22 02:49:30;;;;;;;8.23;3.95;;;;;;;;;;5522274;26;20005;-81
2024/04/22 02:52:15;;;;;;;8.82;3.63;;;;;;;;;;5522652;25;20065;-81
2024/04/22 02:55:01;;;;;;;7.28;3.78;;;;;;;;;;5495639;26;20013;-81
2024/04/22 02:57:46;;;;;;;5.70;3.30;;;;;;;;;;5497539;26;20065;-80
2024/04/22 03:03:44;;;;;;;5.75;3.33;;;;;;;;;;5472044;26;19998;-82
2024/04/22 03:06:29;;;;;;;6.80;3.97;;;;;;;;;;5522807;25;19997;-80
2024/04/22 03:09:15;;;;;;;7.88;3.65;;;;;;;;;;5465467;26;19998;-80
2024/04/22 03:12:00;;;;;;;7.63;3.58;;;;;;;;;;5499132;25;20392;-81
2024/04/22 03:14:45;;;;;;;6.68;3.65;;;;;;;;;;5492460;25;19996;-81
2024/04/22 03:17:31;;;;;;;6.63;3.60;;;;;;;;;;5513117;26;20005;-81
2024/04/22 03:20:16;;;;;;;7.60;3.83;;;;;;;;;;5454971;26;19998;-81
2024/04/22 03:23:01;;;;;;;6.85;4.10;;;;;;;;;;5490299;26;19993;-81
2024/04/22 03:25:46;;;;;;;7.38;3.85;;;;;;;;;;5496681;26;20013;-80
2024/04/22 03:28:37;;;;;;;8.32;4.00;;;;;;;;;;5523667;25;20000;-81
2024/04/22 03:31:23;;;;;;;6.40;3.65;;;;;;;;;;5550445;25;20011;-81
2024/04/22 03:34:09;;;;;;;5.57;3.38;;;;;;;;;;5481926;26;20494;-82
2024/04/22 03:36:54;;;;;;;6.43;3.53;;;;;;;;;;5520424;25;20011;-81
2024/04/22 03:39:39;;;;;;;6.25;3.25;;;;;;;;;;5528920;25;20362;-81
2024/04/22 03:42:25;;;;;;;5.07;3.17;;;;;;;;;;5494606;25;20005;-80
2024/04/22 03:45:10;;;;;;;6.63;3.75;;;;;;;;;;5527511;25;20639;-80
2024/04/22 03:50:59;;;;;;;6.10;3.22;;;;;;;;;;5490489;26;19993;-82
2024/04/22 03:53:45;;;;;;;6.25;3.38;;;;;;;;;;5498849;25;19997;-81
2024/04/22 03:56:31;;;;;;;6.68;3.58;;;;;;;;;;5517367;25;20012;-81
2024/04/22 03:59:16;;;;;;;7.63;3.72;;;;;;;;;;5496363;26;19997;-82
2024/04/22 04:02:01;;;;;;;10.82;4.13;;;;;;;;;;5517750;25;20075;-79
2024/04/22 04:04:47;;;;;;;5.53;3.00;;;;;;;;;;5502059;26;20002;-79
2024/04/22 04:07:32;;;;;;;6.20;3.25;;;;;;;;;;5493585;25;20026;-79
2024/04/22 04:10:17;;;;;;;5.10;3.20;;;;;;;;;;5523788;25;20001;-79
2024/04/22 04:13:03;;;;;;;6.68;3.10;;;;;;;;;;5543881;25;20072;-80
2024/04/22 04:15:48;;;;;;;5.47;3.13;;;;;;;;;;5473985;26;20009;-79
2024/04/22 04:18:33;;;;;;;5.57;3.40;;;;;;;;;;5496762;25;20091;-79
2024/04/22 04:21:18;;;;;;;8.80;3.45;;;;;;;;;;5486052;26;20029;-78
2024/04/22 04:24:04;;;;;;;5.60;3.20;;;;;;;;;;5472783;26;20067;-80
2024/04/22 04:26:55;;;;;;;8.43;3.67;;;;;;;;;;5486606;26;19994;-80
2024/04/22 04:29:40;;;;;;;4.45;2.90;;;;;;;;;;5508753;25;20007;-79
2024/04/22 04:32:26;;;;;;;7.55;3.15;;;;;;;;;;5526041;25;19992;-80
2024/04/22 04:35:12;;;;;;;6.85;3.63;;;;;;;;;;5508833;25;19989;-80
2024/04/22 04:37:57;;;;;;;7.05;3.80;;;;;;;;;;5514929;25;20447;-80
2024/04/22 04:40:42;;;;;;;7.35;3.45;;;;;;;;;;5509330;25;20008;-80
2024/04/22 04:43:28;;;;;;;5.65;3.10;;;;;;;;;;5484215;25;19993;-79
2024/04/22 04:46:13;;;;;;;6.72;4.00;;;;;;;;;;5508129;25;20047;-81
2024/04/22 04:48:59;;;;;;;5.53;3.33;;;;;;;;;;5552563;25;20005;-79
2024/04/22 04:51:46;;;;;;;6.97;3.97;;;;;;;;;;5534014;25;19992;-84
2024/04/22 04:54:32;;;;;;;11.95;3.47;;;;;;;;;;5527990;25;20029;-83
2024/04/22 04:57:17;;;;;;;6.22;3.47;;;;;;;;;;5530845;25;20064;-84
2024/04/22 05:00:02;;;;;;;4.85;2.95;;;;;;;;;;5502963;25;19997;-83
2024/04/22 05:02:48;;;;;;;7.00;2.80;;;;;;;;;;5492219;26;20533;-82
2024/04/22 05:05:33;;;;;;;6.55;3.55;;;;;;;;;;5511292;25;20439;-82
2024/04/22 05:08:18;;;;;;;5.07;3.35;;;;;;;;;;5520915;25;20546;-85
2024/04/22 05:11:03;;;;;;;7.65;3.58;;;;;;;;;;5502606;25;19999;-82
2024/04/22 05:13:49;;;;;;;5.25;3.13;;;;;;;;;;5496653;25;19993;-85
2024/04/22 05:16:34;;;;;;;7.07;3.63;;;;;;;;;;5499104;25;20008;-82
2024/04/22 05:19:19;;;;;;;4.97;3.25;;;;;;;;;;5504930;25;20475;-85
2024/04/22 05:22:05;;;;;;;7.45;3.35;;;;;;;;;;5509811;25;19997;-84
2024/04/22 05:24:50;;;;;;;6.57;3.22;;;;;;;;;;5508406;25;20011;-84
2024/04/22 05:27:35;;;;;;;5.90;3.47;;;;;;;;;;5504221;25;20002;-82
2024/04/22 05:30:21;;;;;;;5.78;3.22;;;;;;;;;;5505495;25;20003;-82
2024/04/22 05:36:09;;;;;;;7.70;3.35;;;;;;;;;;5522410;25;19993;-83
2024/04/22 05:36:14;;;;;;;7.25;3.35;;;;;;;;;;5488449;26;19997;-83
2024/04/22 05:38:59;;;;;;;4.85;2.88;;;;;;;;;;5503670;25;20445;-83
2024/04/22 05:41:44;;;;;;;5.43;3.20;;;;;;;;;;5526024;25;19989;-82
2024/04/22 05:44:29;;;;;;;5.30;2.85;;;;;;;;;;5515549;25;20032;-83
2024/04/22 05:47:15;;;;;;;6.05;3.03;;;;;;;;;;5553382;25;20123;-83
2024/04/22 05:50:02;;;;;;;7.30;3.33;;;;;;;;;;5531138;25;20073;-82
2024/04/22 05:52:47;;;;;;;4.15;2.70;;;;;;;;;;5488511;26;19998;-82
2024/04/22 05:55:32;;;;;;;6.78;3.08;;;;;;;;;;5489150;26;20320;-81
2024/04/22 05:58:17;;;;;;;4.75;3.05;;;;;;;;;;5517237;25;19993;-82
2024/04/22 06:01:03;;;;;;;5.70;2.75;;;;;;;;;;5488883;25;20004;-81
2024/04/22 06:03:48;;;;;;;5.18;2.90;;;;;;;;;;5452300;26;19998;-81
2024/04/22 06:06:33;;;;;;;5.18;3.00;;;;;;;;;;5451978;26;20005;-81
2024/04/22 06:09:22;;;;;;;4.38;2.72;;;;;;;;;;5479868;25;20000;-81
2024/04/22 06:12:07;;;;;;;5.50;2.95;;;;;;;;;;5522629;25;20290;-81
2024/04/22 06:14:53;;;;;;;5.53;2.97;;;;;;;;;;5507259;25;20011;-81
2024/04/22 06:17:38;;;;;;;4.03;2.83;;;;;;;;;;5529054;25;20360;-81
2024/04/22 06:20:23;;;;;;;4.43;2.58;;;;;;;;;;5525561;25;20076;-82
2024/04/22 06:23:08;;;;;;;7.78;2.92;;;;;;;;;;5528844;25;20404;-83
2024/04/22 06:26:01;;;;;;;5.50;2.60;;;;;;;;;;5528737;25;20007;-82
2024/04/22 06:28:46;;;;;;;5.30;2.78;;;;;;;;;;5524285;25;20016;-81
2024/04/22 06:31:31;;;;;;;6.20;2.63;;;;;;;;;;5491387;26;19997;-82
2024/04/22 06:34:16;;;;;;;5.35;3.13;;;;;;;;;;5491825;26;20001;-81
2024/04/22 06:37:02;;;;;;;7.57;3.17;;;;;;;;;;5491818;26;20001;-81
2024/04/22 06:39:47;;;;;;;7.95;3.97;;;;;;;;;;5505614;25;20000;-81
2024/04/22 06:42:32;;;;;;;5.15;3.17;;;;;;;;;;5509610;25;20002;-81
2024/04/22 06:45:18;;;;;;;9.80;3.90;;;;;;;;;;5505090;25;20037;-82
2024/04/22 06:48:03;;;;;;;5.95;2.92;;;;;;;;;;5528624;25;20001;-82
2024/04/22 06:50:50;;;;;;;5.10;3.00;;;;;;;;;;5537731;25;20005;-82
2024/04/22 06:53:35;;;;;;;5.70;3.50;;;;;;;;;;5518569;26;20005;-82
2024/04/22 06:56:21;;;;;;;4.85;3.58;;;;;;;;;;5465895;26;20025;-82
2024/04/22 06:59:06;;;;;;;6.20;3.42;;;;;;;;;;5491940;25;20012;-83
2024/04/22 07:01:51;;;;;;;5.68;3.30;;;;;;;;;;5491928;26;20002;-82
2024/04/22 07:04:37;;;;;;;6.50;3.25;;;;;;;;;;5489800;26;20012;-81
2024/04/22 07:07:22;;;;;;;5.30;3.28;;;;;;;;;;5491453;26;19997;-82
2024/04/22 07:10:07;;;;;;;5.07;3.00;;;;;;;;;;5496412;25;20063;-82
2024/04/22 07:12:53;;;;;;;6.88;3.60;;;;;;;;;;5498645;26;19998;-82
2024/04/22 07:15:38;;;;;;;7.13;3.58;;;;;;;;;;5500229;25;19997;-82
2024/04/22 07:18:23;;;;;;;9.55;2.75;;;;;;;;;;5528380;25;20033;-82
2024/04/22 07:21:08;;;;;;;6.28;2.97;;;;;;;;;;5552043;25;20012;-82
2024/04/22 07:23:53;;;;;;;6.53;3.53;;;;;;;;;;5527981;25;20045;-81
2024/04/22 07:26:39;;;;;;;7.03;3.55;;;;;;;;;;5554583;25;20012;-81
2024/04/22 07:29:24;;;;;;;8.68;3.05;;;;;;;;;;5555001;25;20009;-81
2024/04/22 07:32:10;;;;;;;6.63;2.80;;;;;;;;;;5479308;26;20009;-81
2024/04/22 07:34:55;;;;;;;5.68;3.15;;;;;;;;;;5454097;26;20038;-81
2024/04/22 07:37:43;;;;;;;3.83;2.50;;;;;;;;;;5479510;26;20002;-83
2024/04/22 07:40:28;;;;;;;4.50;2.42;;;;;;;;;;5499058;25;20001;-82
2024/04/22 07:43:13;;;;;;;5.90;3.10;;;;;;;;;;5515057;25;19995;-82
2024/04/22 07:45:58;;;;;;;7.38;3.22;;;;;;;;;;5520964;25;20551;-81
2024/04/22 07:48:44;;;;;;;7.78;3.38;;;;;;;;;;5526989;25;20036;-81
2024/04/22 07:51:29;;;;;;;6.47;3.25;;;;;;;;;;5536049;25;20016;-81
2024/04/22 07:54:14;;;;;;;5.18;2.75;;;;;;;;;;5516604;26;20081;-81
2024/04/22 07:56:59;;;;;;;8.80;2.97;;;;;;;;;;5489313;26;20635;-82
2024/04/22 07:59:45;;;;;;;4.95;2.72;;;;;;;;;;5490304;26;20336;-82
2024/04/22 08:02:30;;;;;;;6.32;2.78;;;;;;;;;;5453785;26;20010;-81
2024/04/22 08:05:16;;;;;;;5.80;3.33;;;;;;;;;;5479328;26;20074;-81
2024/04/22 08:08:02;;;;;;;4.50;2.85;;;;;;;;;;5454414;26;20053;-81
2024/04/22 08:10:47;;;;;;;6.82;2.90;;;;;;;;;;5464902;25;19993;-81
2024/04/22 08:13:32;;;;;;;5.53;2.78;;;;;;;;;;5490314;26;19998;-81
2024/04/22 08:16:18;;;;;;;4.63;2.70;;;;;;;;;;5500762;25;20005;-83
2024/04/22 08:19:03;;;;;;;4.15;2.38;;;;;;;;;;5527549;25;20134;-83
2024/04/22 08:21:48;;;;;;;3.55;2.22;;;;;;;;;;5488503;25;20038;-83
2024/04/22 08:24:34;;;;;;;4.80;2.60;;;;;;;;;;5479278;26;20002;-82
2024/04/22 08:27:19;;;;;;;4.75;2.72;;;;;;;;;;5441947;26;20013;-82
2024/04/22 08:30:04;;;;;;;4.32;2.60;;;;;;;;;;5442600;26;19999;-82
2024/04/22 08:32:50;;;;;;;4.95;2.30;;;;;;;;;;5514632;26;20016;-83
2024/04/22 08:35:42;;;;;;;5.28;2.17;;;;;;;;;;5517144;26;20001;-82
2024/04/22 08:38:27;;;;;;;2.92;2.00;;;;;;;;;;5517787;26;20072;-82
2024/04/22 08:41:15;;;;;;;4.22;2.28;;;;;;;;;;5511688;26;20033;-82
2024/04/22 08:44:01;;;;;;;5.32;2.20;;;;;;;;;;5467074;26;19998;-82
2024/04/22 08:46:46;;;;;;;3.97;2.50;;;;;;;;;;5470556;26;19997;-82
2024/04/22 08:49:31;;;;;;;8.52;5.00;;;;;;;;;;5467704;26;19999;-81
2024/04/22 08:52:16;;;;;;;5.47;2.38;;;;;;;;;;5442318;26;19999;-82
2024/04/22 08:55:02;;;;;;;6.72;3.03;;;;;;;;;;5443144;26;19998;-81
2024/04/22 08:57:47;;;;;;;2.72;2.08;;;;;;;;;;5477723;26;20058;-82
2024/04/22 09:00:32;;;;;;;3.20;1.83;;;;;;;;;;5442272;26;20100;-81
2024/04/22 09:03:17;;;;;;;5.60;2.47;;;;;;;;;;5488389;26;20427;-82
2024/04/22 09:06:03;;;;;;;3.22;2.00;;;;;;;;;;5490513;26;20385;-81
2024/04/22 09:08:48;;;;;;;4.70;2.10;;;;;;;;;;5483502;26;20002;-81
2024/04/22 09:11:33;;;;;;;3.60;2.20;;;;;;;;;;5478012;26;20002;-82
2024/04/22 09:14:19;;;;;;;4.70;2.40;;;;;;;;;;5477872;26;20002;-81
2024/04/22 09:17:04;;;;;;;3.30;2.28;;;;;;;;;;5489055;26;20030;-82
2024/04/22 09:19:50;;;;;;;5.15;2.70;;;;;;;;;;5490078;26;20019;-82
2024/04/22 09:22:35;;;;;;;7.97;3.28;;;;;;;;;;5489184;26;20001;-82
2024/04/22 09:25:20;;;;;;;5.05;2.92;;;;;;;;;;5489082;26;19997;-82
2024/04/22 09:28:06;;;;;;;3.38;2.13;;;;;;;;;;5485856;26;19997;-81
2024/04/22 09:30:53;;;;;;;4.75;2.72;;;;;;;;;;5471612;26;20066;-81
2024/04/22 09:33:38;;;;;;;6.32;2.33;;;;;;;;;;5462563;26;19994;-81
2024/04/22 09:36:25;;;;;;;6.22;2.53;;;;;;;;;;5452943;26;19990;-81
2024/04/22 09:39:11;;;;;;;3.60;2.17;;;;;;;;;;5458369;26;19994;-81
2024/04/22 09:41:56;;;;;;;3.35;2.20;;;;;;;;;;5452740;26;19998;-81
2024/04/22 09:44:42;;;;;;;4.90;2.38;;;;;;;;;;5432266;26;20013;-83
2024/04/22 09:47:29;;;;;;;4.63;2.28;;;;;;;;;;5448154;26;20017;-82
2024/04/22 09:50:15;;;;;;;3.83;2.75;;;;;;;;;;5456461;26;20002;-82
2024/04/22 09:53:02;;;;;;;4.43;2.10;;;;;;;;;;5482414;26;20012;-82
2024/04/22 09:55:48;;;;;;;5.45;2.67;;;;;;;;;;5455831;26;20024;-82
2024/04/22 09:58:35;;;;;;;3.72;2.22;;;;;;;;;;5457034;26;19995;-81
2024/04/22 10:01:21;;;;;;;5.18;2.38;;;;;;;;;;5455689;26;20017;-82
2024/04/22 10:04:07;;;;;;;4.40;2.33;;;;;;;;;;5456051;26;19998;-81
2024/04/22 10:06:53;;;;;;;4.35;2.63;;;;;;;;;;5456018;26;20013;-81
2024/04/22 10:09:38;;;;;;;5.18;2.65;;;;;;;;;;5484777;26;19998;-81
2024/04/22 10:12:24;;;;;;;5.78;2.45;;;;;;;;;;5478693;26;20007;-82
2024/04/22 10:15:13;;;;;;;6.07;2.33;;;;;;;;;;5419509;26;20018;-81
2024/04/22 10:18:14;;;;;;;11.85;2.55;;;;;;;;;;5471269;26;20122;-82
2024/04/22 10:21:00;;;;;;;3.53;2.33;;;;;;;;;;5491258;26;19997;-82
2024/04/22 10:23:45;;;;;;;4.35;2.40;;;;;;;;;;5491965;26;20466;-82
2024/04/22 10:26:31;;;;;;;6.00;2.60;;;;;;;;;;5509888;25;20016;-82
2024/04/22 10:29:17;;;;;;;5.65;2.03;;;;;;;;;;5525890;25;20072;-82
2024/04/22 10:32:03;;;;;;;6.30;1.88;;;;;;;;;;5528410;25;20020;-82
2024/04/22 10:34:48;;;;;;;3.53;1.92;;;;;;;;;;5555587;25;20073;-82
2024/04/22 10:37:33;;;;;;;2.75;1.98;;;;;;;;;;5528634;25;20008;-82
2024/04/22 10:40:19;;;;;;;2.85;1.70;;;;;;;;;;5526475;25;20000;-82
2024/04/22 10:43:04;;;;;;;3.70;2.03;;;;;;;;;;5493449;26;20010;-82
2024/04/22 10:45:49;;;;;;;3.35;2.00;;;;;;;;;;5455130;26;20067;-81
2024/04/22 10:48:35;;;;;;;4.40;2.30;;;;;;;;;;5493781;25;19998;-82
2024/04/22 10:51:21;;;;;;;2.67;1.83;;;;;;;;;;5455509;26;20009;-82
2024/04/22 10:54:06;;;;;;;4.43;2.20;;;;;;;;;;5481305;26;20013;-81
2024/04/22 10:56:51;;;;;;;3.10;1.80;;;;;;;;;;5488964;26;20017;-81
2024/04/22 10:59:37;;;;;;;3.45;1.88;;;;;;;;;;5494077;26;20013;-82
2024/04/22 11:02:22;;;;;;;3.17;1.90;;;;;;;;;;5491139;26;20336;-81
2024/04/22 11:05:08;;;;;;;5.03;1.83;;;;;;;;;;5525747;25;20030;-81
2024/04/22 11:07:53;;;;;;;3.33;2.35;;;;;;;;;;5528974;25;19997;-82
2024/04/22 11:10:39;;;;;;;3.35;2.08;;;;;;;;;;5495457;26;19994;-81
2024/04/22 11:13:25;;;;;;;4.38;2.13;;;;;;;;;;5491329;26;20017;-81
2024/04/22 11:16:10;;;;;;;4.95;2.33;;;;;;;;;;5491091;26;20001;-81
2024/04/22 11:19:01;;;;;;;3.53;1.80;;;;;;;;;;5478963;25;20068;-82
2024/04/22 11:21:46;;;;;;;4.50;2.08;;;;;;;;;;5469271;26;19994;-81
2024/04/22 11:24:32;;;;;;;3.78;1.92;;;;;;;;;;5454609;26;19994;-81
2024/04/22 11:27:17;;;;;;;3.03;2.05;;;;;;;;;;5453971;26;20050;-81
2024/04/22 11:30:03;;;;;;;3.08;2.03;;;;;;;;;;5482167;26;19990;-82
2024/04/22 11:32:49;;;;;;;2.65;2.30;;;;;;;;;;5491241;26;20046;-81
2024/04/22 11:35:37;;;;;;;3.42;1.95;;;;;;;;;;5491929;26;20462;-81
2024/04/22 11:38:23;;;;;;;4.15;1.73;;;;;;;;;;5491476;26;20012;-81
2024/04/22 11:41:09;;;;;;;3.47;1.95;;;;;;;;;;5520532;25;20499;-82
2024/04/22 11:43:54;;;;;;;3.22;1.88;;;;;;;;;;5468295;26;19998;-82
2024/04/22 11:46:40;;;;;;;2.00;1.70;;;;;;;;;;5455116;26;20013;-82
2024/04/22 11:49:25;;;;;;;3.25;2.00;;;;;;;;;;5469859;26;20034;-82
2024/04/22 11:52:10;;;;;;;1.95;1.55;;;;;;;;;;5464461;26;20002;-81
2024/04/22 11:54:55;;;;;;;4.88;2.10;;;;;;;;;;5454467;26;20594;-82
2024/04/22 11:57:41;;;;;;;2.67;1.77;;;;;;;;;;5454517;26;20338;-82
2024/04/22 12:00:26;;;;;;;3.25;1.83;;;;;;;;;;5499299;25;20008;-82
2024/04/22 12:03:11;;;;;;;5.38;2.65;;;;;;;;;;5529809;25;19992;-82
2024/04/22 12:05:56;;;;;;;2.60;2.17;;;;;;;;;;5495989;26;20033;-82
2024/04/22 12:08:42;;;;;;;2.58;1.70;;;;;;;;;;5498475;26;19997;-81
2024/04/22 12:11:27;;;;;;;2.60;1.88;;;;;;;;;;5500439;26;20005;-82
2024/04/22 12:14:13;;;;;;;2.10;1.60;;;;;;;;;;5493932;26;20398;-84
2024/04/22 12:16:58;;;;;;;6.25;2.47;;;;;;;;;;5493232;26;19997;-81
2024/04/22 12:19:44;;;;;;;4.50;1.75;;;;;;;;;;5495157;26;19994;-81
2024/04/22 12:22:29;;;;;;;3.05;2.00;;;;;;;;;;5516477;25;19997;-82
2024/04/22 12:25:14;;;;;;;4.65;1.90;;;;;;;;;;5529569;25;20004;-83
2024/04/22 12:28:00;;;;;;;4.32;1.80;;;;;;;;;;5529386;25;20000;-82
2024/04/22 12:30:45;;;;;;;2.03;1.50;;;;;;;;;;5523927;25;20067;-83
2024/04/22 12:33:31;;;;;;;2.63;1.75;;;;;;;;;;5527459;25;20008;-84
2024/04/22 12:36:16;;;;;;;2.78;1.33;;;;;;;;;;5526933;25;19992;-82
2024/04/22 12:39:02;;;;;;;3.17;1.60;;;;;;;;;;5527343;25;19997;-83
2024/04/22 12:41:47;;;;;;;2.28;1.42;;;;;;;;;;5527238;25;20024;-79
2024/04/22 12:44:32;;;;;;;1.52;1.30;;;;;;;;;;5453363;26;20073;-83
2024/04/22 12:53:26;;;;;;;3.75;2.20;;;;;;;;;;5459437;26;20322;-83
2024/04/22 12:56:11;;;;;;;3.20;2.35;;;;;;;;;;5488937;26;20008;-81
2024/04/22 12:58:58;;;;;;;3.00;2.10;;;;;;;;;;5489453;26;20005;-82
2024/04/22 13:01:43;;;;;;;4.13;2.40;;;;;;;;;;5481178;26;19998;-82
2024/04/22 13:04:29;;;;;;;5.28;2.03;;;;;;;;;;5452752;26;19994;-82
2024/04/22 13:07:14;;;;;;;2.60;1.85;;;;;;;;;;5453296;26;20005;-83
2024/04/22 13:09:59;;;;;;;3.95;2.33;;;;;;;;;;5452837;26;20005;-82
2024/04/22 13:12:45;;;;;;;4.13;2.00;;;;;;;;;;5495582;25;19996;-82
2024/04/22 13:15:30;;;;;;;3.28;2.17;;;;;;;;;;5526189;25;20000;-83
2024/04/22 13:18:15;;;;;;;4.88;1.92;;;;;;;;;;5525449;25;19993;-82
2024/04/22 13:21:02;;;;;;;4.68;2.05;;;;;;;;;;5517416;25;20008;-82
2024/04/22 13:23:47;;;;;;;2.90;2.10;;;;;;;;;;5489738;26;20008;-83
2024/04/22 13:26:32;;;;;;;4.43;2.05;;;;;;;;;;5489366;26;20522;-83
2024/04/22 13:29:18;;;;;;;2.38;1.67;;;;;;;;;;5488897;26;19997;-83
2024/04/22 13:32:03;;;;;;;2.15;1.75;;;;;;;;;;5511831;25;20012;-83
2024/04/22 13:34:49;;;;;;;2.55;1.70;;;;;;;;;;5526115;25;20000;-83
2024/04/22 13:37:34;;;;;;;4.32;1.70;;;;;;;;;;5489723;26;20009;-83
2024/04/22 13:40:19;;;;;;;2.75;1.85;;;;;;;;;;5489253;26;20033;-83
2024/04/22 13:43:05;;;;;;;2.75;1.60;;;;;;;;;;5483455;26;19994;-82
2024/04/22 13:45:50;;;;;;;4.32;2.38;;;;;;;;;;5488981;26;19994;-82
2024/04/22 13:48:35;;;;;;;3.05;1.77;;;;;;;;;;5463400;26;19990;-82
2024/04/22 13:51:21;;;;;;;2.67;2.03;;;;;;;;;;5501947;26;20038;-83
2024/04/22 13:54:06;;;;;;;2.33;1.65;;;;;;;;;;5489770;26;19998;-83
2024/04/22 13:56:51;;;;;;;4.45;2.10;;;;;;;;;;5488644;26;20001;-83
2024/04/22 13:59:36;;;;;;;3.80;2.15;;;;;;;;;;5488908;26;20057;-83
2024/04/22 14:02:22;;;;;;;3.75;2.08;;;;;;;;;;5452716;26;20002;-81
2024/04/22 14:05:07;;;;;;;4.25;2.05;;;;;;;;;;5485996;25;20013;-83
2024/04/22 14:07:53;;;;;;;4.25;2.72;;;;;;;;;;5488540;26;19994;-83
2024/04/22 14:10:38;;;;;;;3.20;2.10;;;;;;;;;;5493707;25;20019;-82
2024/04/22 14:13:23;;;;;;;3.60;1.60;;;;;;;;;;5481455;26;20073;-83
2024/04/22 14:16:09;;;;;;;3.10;2.10;;;;;;;;;;5451897;26;20033;-83
2024/04/22 14:18:55;;;;;;;4.28;1.90;;;;;;;;;;5452496;26;20263;-82
2024/04/22 14:21:40;;;;;;;2.40;1.92;;;;;;;;;;5470319;26;19998;-83
2024/04/22 14:24:25;;;;;;;3.00;1.90;;;;;;;;;;5477211;26;20135;-82
2024/04/22 14:27:11;;;;;;;4.40;1.70;;;;;;;;;;5451760;26;20376;-82
2024/04/22 14:29:56;;;;;;;2.22;1.80;;;;;;;;;;5476888;26;20003;-84
2024/04/22 14:32:41;;;;;;;3.05;1.70;;;;;;;;;;5553973;25;19996;-82
2024/04/22 14:35:26;;;;;;;2.45;1.80;;;;;;;;;;5522452;25;20479;-82
2024/04/22 14:38:11;;;;;;;5.57;1.70;;;;;;;;;;5492254;26;19997;-82
2024/04/22 14:40:57;;;;;;;2.50;1.63;;;;;;;;;;5493686;25;20004;-82
2024/04/22 14:43:42;;;;;;;2.40;1.70;;;;;;;;;;5494466;25;20005;-81
2024/04/22 14:46:27;;;;;;;2.30;1.40;;;;;;;;;;5490836;25;20050;-81
2024/04/22 14:49:13;;;;;;;3.17;1.73;;;;;;;;;;5491055;26;20045;-82
2024/04/22 14:51:58;;;;;;;1.98;1.25;;;;;;;;;;5491548;26;20012;-82
2024/04/22 14:54:43;;;;;;;2.33;1.70;;;;;;;;;;5490147;26;19993;-83
2024/04/22 14:57:29;;;;;;;4.05;1.88;;;;;;;;;;5493710;25;20077;-81
2024/04/22 15:00:14;;;;;;;4.45;2.15;;;;;;;;;;5518975;25;19993;-81
2024/04/22 15:03:01;;;;;;;4.22;1.90;;;;;;;;;;5529184;25;20042;-83
2024/04/22 15:05:46;;;;;;;2.35;1.50;;;;;;;;;;5524329;25;20028;-81
2024/04/22 15:08:32;;;;;;;3.88;2.10;;;;;;;;;;5493548;25;20011;-83
2024/04/22 15:11:18;;;;;;;3.28;2.28;;;;;;;;;;5494159;25;19992;-82
2024/04/22 15:14:04;;;;;;;3.88;2.05;;;;;;;;;;5499563;25;19993;-83
2024/04/22 15:16:49;;;;;;;4.93;2.92;;;;;;;;;;5479210;25;20447;-82
2024/04/22 15:19:57;;;;;;;;;;;;;;;;;;;;;
2024/04/22 15:22:54;;;;;;;5.22;2.50;;;;;;;;;;5486718;25;20325;-81
2024/04/22 15:25:39;;;;;;;4.53;2.50;;;;;;;;;;5527429;25;19997;-83
2024/04/22 15:28:24;;;;;;;4.55;2.78;;;;;;;;;;5526583;25;20121;-82
2024/04/22 15:31:10;;;;;;;3.58;2.28;;;;;;;;;;5514028;25;20258;-85
2024/04/22 15:33:55;;;;;;;3.53;2.35;;;;;;;;;;5526147;25;19993;-82
2024/04/22 15:36:40;;;;;;;5.82;3.30;;;;;;;;;;5501186;25;20072;-82
2024/04/22 15:39:27;;;;;;;5.50;2.78;;;;;;;;;;5497101;25;19993;-81
2024/04/22 15:42:12;;;;;;;4.68;2.67;;;;;;;;;;5482888;25;19993;-80
2024/04/22 15:44:57;;;;;;;2.95;2.05;;;;;;;;;;5517280;25;19992;-80
2024/04/22 15:47:43;;;;;;;2.75;1.70;;;;;;;;;;5506016;25;20361;-80
2024/04/22 15:50:29;;;;;;;2.78;1.60;;;;;;;;;;5506495;25;20024;-80
2024/04/22 15:53:14;;;;;;;3.80;2.00;;;;;;;;;;5493493;25;20530;-80
2024/04/22 15:56:00;;;;;;;3.15;1.90;;;;;;;;;;5520378;25;20319;-81
2024/04/22 15:58:45;;;;;;;2.13;1.50;;;;;;;;;;5499362;25;20021;-80
2024/04/22 16:01:30;;;;;;;3.17;1.65;;;;;;;;;;5489300;26;20008;-80
2024/04/22 16:04:19;;;;;;;2.80;1.90;;;;;;;;;;5496552;25;19993;-80
2024/04/22 16:07:05;;;;;;;3.53;1.95;;;;;;;;;;5478058;25;19997;-80
2024/04/22 16:09:51;;;;;;;3.30;1.95;;;;;;;;;;5509341;25;20079;-81
2024/04/22 16:12:37;;;;;;;3.75;2.08;;;;;;;;;;5490075;25;20574;-82
2024/04/22 16:15:22;;;;;;;3.78;1.38;;;;;;;;;;5502884;25;20008;-82
2024/04/22 16:18:07;;;;;;;3.30;1.73;;;;;;;;;;5498653;25;20015;-81
2024/04/22 16:20:53;;;;;;;3.88;2.00;;;;;;;;;;5500627;26;20073;-83
2024/04/22 16:23:38;;;;;;;3.10;2.08;;;;;;;;;;5501570;25;20065;-82
2024/04/22 16:26:24;;;;;;;3.13;1.98;;;;;;;;;;5494337;26;20057;-81
2024/04/22 16:29:10;;;;;;;5.28;2.25;;;;;;;;;;5500390;26;20193;-81
2024/04/22 16:31:55;;;;;;;4.15;1.80;;;;;;;;;;5489736;26;19997;-81
2024/04/22 16:34:40;;;;;;;2.78;1.83;;;;;;;;;;5489192;26;20311;-81
2024/04/22 16:37:26;;;;;;;3.47;2.17;;;;;;;;;;5500261;26;20066;-81
2024/04/22 16:40:12;;;;;;;2.63;1.90;;;;;;;;;;5508644;26;20005;-80
2024/04/22 16:42:57;;;;;;;2.63;2.00;;;;;;;;;;5499537;26;19990;-80
2024/04/22 16:45:43;;;;;;;3.63;2.28;;;;;;;;;;5499313;26;20343;-82